createdAt,value
2018-07-21T00:00:00.635Z,0
2018-07-21T00:00:41.156Z,0
2018-07-21T00:01:21.630Z,0
2018-07-21T00:02:02.132Z,0
2018-07-21T00:02:42.652Z,0
2018-07-21T00:03:23.119Z,0
2018-07-21T00:04:03.636Z,0
2018-07-21T00:04:44.110Z,0
2018-07-21T00:05:24.672Z,0
2018-07-21T00:06:05.136Z,0
2018-07-21T00:06:45.618Z,0
2018-07-21T00:07:26.118Z,0
2018-07-21T00:08:06.620Z,0
2018-07-21T00:08:47.175Z,0
2018-07-21T00:09:27.698Z,0
2018-07-21T00:10:08.201Z,0
2018-07-21T00:10:48.675Z,0
2018-07-21T00:11:29.210Z,0
2018-07-21T00:12:09.751Z,0
2018-07-21T00:12:50.232Z,0
2018-07-21T00:13:30.731Z,0
2018-07-21T00:14:11.213Z,0
2018-07-21T00:14:51.774Z,0
2018-07-21T00:15:32.227Z,0
2018-07-21T00:16:12.723Z,0
2018-07-21T00:16:53.203Z,0
2018-07-21T00:17:33.743Z,0
2018-07-21T00:18:14.234Z,0
2018-07-21T00:18:54.753Z,0
2018-07-21T00:19:35.247Z,0
2018-07-21T00:20:15.740Z,0
2018-07-21T00:20:56.220Z,0
2018-07-21T00:21:36.750Z,0
2018-07-21T00:22:17.228Z,0
2018-07-21T00:22:57.750Z,0
2018-07-21T00:23:38.186Z,0
2018-07-21T00:24:18.737Z,0
2018-07-21T00:24:59.188Z,0
2018-07-21T00:25:39.715Z,0
2018-07-21T00:26:20.231Z,0
2018-07-21T00:27:00.724Z,0
2018-07-21T00:27:41.226Z,0
2018-07-21T00:28:21.731Z,0
2018-07-21T00:29:02.204Z,0
2018-07-21T00:29:42.717Z,0
2018-07-21T00:30:23.193Z,0
2018-07-21T00:31:03.706Z,0
2018-07-21T00:31:44.266Z,0
2018-07-21T00:32:24.674Z,0
2018-07-21T00:33:05.265Z,0
2018-07-21T00:33:45.737Z,0
2018-07-21T00:34:26.250Z,0
2018-07-21T00:35:06.727Z,0
2018-07-21T00:35:47.272Z,0
2018-07-21T00:36:27.809Z,0
2018-07-21T00:37:08.315Z,0
2018-07-21T00:37:48.817Z,0
2018-07-21T00:38:29.304Z,0
2018-07-21T00:39:09.809Z,0
2018-07-21T00:39:50.287Z,0
2018-07-21T00:40:30.795Z,0
2018-07-21T00:41:11.281Z,0
2018-07-21T00:41:51.810Z,0
2018-07-21T00:42:32.319Z,0
2018-07-21T00:43:12.816Z,0
2018-07-21T00:43:53.295Z,0
2018-07-21T00:44:33.828Z,0
2018-07-21T00:45:14.346Z,0
2018-07-21T00:45:54.827Z,0
2018-07-21T00:46:35.381Z,0
2018-07-21T00:47:15.925Z,0
2018-07-21T00:47:56.388Z,0
2018-07-21T00:48:36.868Z,0
2018-07-21T00:49:17.417Z,0
2018-07-21T00:49:57.925Z,0
2018-07-21T00:50:38.458Z,0
2018-07-21T00:51:18.921Z,0
2018-07-21T00:51:59.374Z,0
2018-07-21T00:52:39.902Z,0
2018-07-21T00:53:20.408Z,0
2018-07-21T00:54:00.895Z,0
2018-07-21T00:54:41.394Z,0
2018-07-21T00:55:21.942Z,0
2018-07-21T00:56:02.385Z,0
2018-07-21T00:56:42.893Z,0
2018-07-21T00:57:23.445Z,0
2018-07-21T00:58:03.899Z,0
2018-07-21T00:58:44.417Z,0
2018-07-21T00:59:24.904Z,0
2018-07-21T01:00:05.387Z,0
2018-07-21T01:00:45.940Z,0
2018-07-21T01:01:26.374Z,0
2018-07-21T01:02:06.898Z,0
2018-07-21T01:02:47.412Z,0
2018-07-21T01:03:27.952Z,0
2018-07-21T01:04:08.430Z,0
2018-07-21T01:04:48.957Z,0
2018-07-21T01:05:29.408Z,0
2018-07-21T01:06:09.982Z,0
2018-07-21T01:06:50.434Z,0
2018-07-21T01:07:30.942Z,0
2018-07-21T01:08:11.467Z,0
2018-07-21T01:08:51.932Z,0
2018-07-21T01:09:32.445Z,0
2018-07-21T01:10:12.926Z,0
2018-07-21T01:10:53.459Z,0
2018-07-21T01:11:33.937Z,0
2018-07-21T01:12:14.457Z,0
2018-07-21T01:12:54.943Z,0
2018-07-21T01:13:35.442Z,0
2018-07-21T01:14:15.994Z,0
2018-07-21T01:14:56.476Z,0
2018-07-21T01:15:36.965Z,0
2018-07-21T01:16:17.528Z,0
2018-07-21T01:16:58.030Z,0
2018-07-21T01:17:38.475Z,0
2018-07-21T01:18:18.956Z,0
2018-07-21T01:18:59.485Z,0
2018-07-21T01:19:39.983Z,0
2018-07-21T01:20:20.472Z,0
2018-07-21T01:21:00.908Z,0
2018-07-21T01:21:41.394Z,0
2018-07-21T01:22:21.875Z,0
2018-07-21T01:23:02.384Z,0
2018-07-21T01:23:42.886Z,0
2018-07-21T01:24:23.393Z,0
2018-07-21T01:25:03.914Z,0
2018-07-21T01:25:44.394Z,0
2018-07-21T01:26:25.043Z,0
2018-07-21T01:27:05.579Z,0
2018-07-21T01:27:46.088Z,0
2018-07-21T01:28:26.588Z,0
2018-07-21T01:29:07.095Z,0
2018-07-21T01:29:47.612Z,0
2018-07-21T01:30:28.097Z,0
2018-07-21T01:31:08.587Z,0
2018-07-21T01:31:49.091Z,0
2018-07-21T01:32:29.573Z,0
2018-07-21T01:33:10.045Z,0
2018-07-21T01:33:50.542Z,0
2018-07-21T01:34:31.019Z,0
2018-07-21T01:35:11.488Z,0
2018-07-21T01:35:52.856Z,0
2018-07-21T01:36:32.970Z,0
2018-07-21T01:37:13.442Z,0
2018-07-21T01:37:53.990Z,0
2018-07-21T01:38:34.543Z,0
2018-07-21T01:39:15.023Z,0
2018-07-21T01:39:55.521Z,0
2018-07-21T01:40:36.059Z,0
2018-07-21T01:41:16.542Z,0
2018-07-21T01:41:56.996Z,0
2018-07-21T01:42:37.516Z,0
2018-07-21T01:43:17.965Z,0
2018-07-21T01:43:58.476Z,0
2018-07-21T01:44:38.996Z,0
2018-07-21T01:45:19.444Z,0
2018-07-21T01:45:59.953Z,0
2018-07-21T01:46:40.454Z,0
2018-07-21T01:47:20.937Z,0
2018-07-21T01:48:01.397Z,0
2018-07-21T01:48:41.913Z,0
2018-07-21T01:49:22.407Z,0
2018-07-21T01:50:02.953Z,0
2018-07-21T01:50:43.399Z,0
2018-07-21T01:51:23.906Z,0
2018-07-21T01:52:04.480Z,0
2018-07-21T01:52:44.937Z,0
2018-07-21T01:53:25.412Z,0
2018-07-21T01:54:05.968Z,0
2018-07-21T01:54:46.431Z,0
2018-07-21T01:55:26.929Z,0
2018-07-21T01:56:07.464Z,0
2018-07-21T01:56:47.947Z,0
2018-07-21T01:57:28.623Z,0
2018-07-21T01:58:09.207Z,0
2018-07-21T01:58:49.703Z,0
2018-07-21T01:59:30.216Z,0
2018-07-21T02:00:10.703Z,0
2018-07-21T02:00:51.223Z,0
2018-07-21T02:01:31.773Z,0
2018-07-21T02:02:12.295Z,0
2018-07-21T02:02:52.781Z,0
2018-07-21T02:03:33.282Z,0
2018-07-21T02:04:13.857Z,0
2018-07-21T02:04:54.332Z,0
2018-07-21T02:05:34.784Z,0
2018-07-21T02:06:15.287Z,0
2018-07-21T02:06:55.781Z,0
2018-07-21T02:07:36.264Z,0
2018-07-21T02:08:16.772Z,0
2018-07-21T02:08:57.299Z,0
2018-07-21T02:09:37.780Z,0
2018-07-21T02:10:18.292Z,0
2018-07-21T02:10:58.805Z,0
2018-07-21T02:11:39.322Z,0
2018-07-21T02:12:19.834Z,0
2018-07-21T02:13:00.358Z,0
2018-07-21T02:13:40.876Z,0
2018-07-21T02:14:21.374Z,0
2018-07-21T02:15:01.876Z,0
2018-07-21T02:15:42.362Z,0
2018-07-21T02:16:22.876Z,0
2018-07-21T02:17:03.403Z,0
2018-07-21T02:17:43.887Z,0
2018-07-21T02:18:24.419Z,0
2018-07-21T02:19:04.879Z,0
2018-07-21T02:19:45.402Z,0
2018-07-21T02:20:25.910Z,0
2018-07-21T02:21:06.473Z,0
2018-07-21T02:21:47.249Z,0
2018-07-21T02:22:27.753Z,0
2018-07-21T02:23:08.280Z,0
2018-07-21T02:23:48.911Z,0
2018-07-21T02:24:29.318Z,0
2018-07-21T02:25:09.830Z,0
2018-07-21T02:25:50.330Z,0
2018-07-21T02:26:30.869Z,0
2018-07-21T02:27:11.426Z,0
2018-07-21T02:27:51.851Z,0
2018-07-21T02:28:32.377Z,0
2018-07-21T02:29:12.854Z,0
2018-07-21T02:29:53.350Z,0
2018-07-21T02:30:33.795Z,0
2018-07-21T02:31:14.327Z,0
2018-07-21T02:31:54.827Z,0
2018-07-21T02:32:35.374Z,0
2018-07-21T02:33:15.852Z,0
2018-07-21T02:33:56.367Z,0
2018-07-21T02:34:36.891Z,0
2018-07-21T02:35:17.369Z,0
2018-07-21T02:35:57.887Z,0
2018-07-21T02:36:38.405Z,0
2018-07-21T02:37:18.909Z,0
2018-07-21T02:37:59.480Z,0
2018-07-21T02:38:39.937Z,0
2018-07-21T02:39:20.496Z,0
2018-07-21T02:40:00.984Z,0
2018-07-21T02:40:41.499Z,0
2018-07-21T02:41:22.017Z,0
2018-07-21T02:42:02.535Z,0
2018-07-21T02:42:43.039Z,0
2018-07-21T02:43:23.519Z,0
2018-07-21T02:44:04.094Z,0
2018-07-21T02:44:44.600Z,0
2018-07-21T02:45:25.143Z,0
2018-07-21T02:46:05.659Z,0
2018-07-21T02:46:46.177Z,0
2018-07-21T02:47:26.691Z,0
2018-07-21T02:48:07.160Z,0
2018-07-21T02:48:47.699Z,0
2018-07-21T02:49:28.182Z,0
2018-07-21T02:50:08.667Z,0
2018-07-21T02:50:49.187Z,0
2018-07-21T02:51:29.676Z,0
2018-07-21T02:52:10.169Z,0
2018-07-21T02:52:50.678Z,0
2018-07-21T02:55:09.048Z,0
2018-07-21T02:55:49.562Z,0
2018-07-21T02:56:30.093Z,0
2018-07-21T02:57:10.593Z,0
2018-07-21T02:57:51.148Z,0
2018-07-21T02:58:31.666Z,0
2018-07-21T02:59:12.264Z,0
2018-07-21T02:59:52.680Z,0
2018-07-21T03:00:33.201Z,0
2018-07-21T03:01:13.717Z,0
2018-07-21T03:01:54.224Z,0
2018-07-21T03:02:34.711Z,0
2018-07-21T03:03:15.201Z,0
2018-07-21T03:03:55.778Z,0
2018-07-21T03:04:36.225Z,0
2018-07-21T03:05:16.737Z,0
2018-07-21T03:05:57.276Z,0
2018-07-21T03:06:37.714Z,0
2018-07-21T03:07:18.202Z,0
2018-07-21T03:07:58.719Z,0
2018-07-21T03:08:39.274Z,0
2018-07-21T03:09:19.754Z,0
2018-07-21T03:10:00.288Z,0
2018-07-21T03:10:40.748Z,0
2018-07-21T03:11:21.288Z,0
2018-07-21T03:12:01.827Z,0
2018-07-21T03:12:42.351Z,0
2018-07-21T03:13:22.788Z,0
2018-07-21T03:14:03.306Z,0
2018-07-21T03:14:43.776Z,0
2018-07-21T03:15:24.255Z,0
2018-07-21T03:16:04.742Z,0
2018-07-21T03:16:45.220Z,0
2018-07-21T03:17:25.714Z,0
2018-07-21T03:18:06.228Z,0
2018-07-21T03:18:46.725Z,0
2018-07-21T03:19:27.210Z,0
2018-07-21T03:20:07.704Z,0
2018-07-21T03:20:48.146Z,4
2018-07-21T03:21:28.698Z,4
2018-07-21T03:22:09.180Z,4
2018-07-21T03:22:49.644Z,4
2018-07-21T03:23:30.174Z,0
2018-07-21T03:24:10.630Z,4
2018-07-21T03:24:51.157Z,4
2018-07-21T03:25:31.663Z,4
2018-07-21T03:26:12.166Z,4
2018-07-21T03:26:52.683Z,4
2018-07-21T03:27:33.194Z,4
2018-07-21T03:28:13.688Z,8
2018-07-21T03:28:54.199Z,4
2018-07-21T03:29:34.687Z,8
2018-07-21T03:30:15.204Z,8
2018-07-21T03:30:55.722Z,8
2018-07-21T03:31:36.171Z,12
2018-07-21T03:32:16.720Z,8
2018-07-21T03:32:57.192Z,12
2018-07-21T03:33:37.679Z,12
2018-07-21T03:34:18.182Z,12
2018-07-21T03:34:58.680Z,12
2018-07-21T03:35:39.192Z,12
2018-07-21T03:36:19.688Z,20
2018-07-21T03:37:00.212Z,20
2018-07-21T03:37:40.737Z,20
2018-07-21T03:38:21.217Z,20
2018-07-21T03:39:01.742Z,20
2018-07-21T03:39:42.232Z,24
2018-07-21T03:40:22.777Z,24
2018-07-21T03:41:03.249Z,28
2018-07-21T03:41:43.769Z,28
2018-07-21T03:42:24.291Z,28
2018-07-21T03:43:04.775Z,32
2018-07-21T03:43:45.298Z,36
2018-07-21T03:44:25.812Z,36
2018-07-21T03:45:06.314Z,40
2018-07-21T03:45:46.814Z,36
2018-07-21T03:46:27.301Z,40
2018-07-21T03:47:07.835Z,44
2018-07-21T03:47:48.351Z,44
2018-07-21T03:48:28.861Z,44
2018-07-21T03:49:09.389Z,48
2018-07-21T03:49:49.909Z,48
2018-07-21T03:50:30.411Z,52
2018-07-21T03:51:10.938Z,56
2018-07-21T03:51:51.454Z,64
2018-07-21T03:52:31.954Z,64
2018-07-21T03:53:12.523Z,68
2018-07-21T03:53:53.000Z,72
2018-07-21T03:54:33.502Z,72
2018-07-21T03:55:14.014Z,76
2018-07-21T03:55:54.516Z,76
2018-07-21T03:56:35.011Z,80
2018-07-21T03:57:15.519Z,84
2018-07-21T03:57:56.039Z,84
2018-07-21T03:58:36.544Z,88
2018-07-21T03:59:17.055Z,92
2018-07-21T03:59:57.571Z,92
2018-07-21T04:00:38.152Z,96
2018-07-21T04:01:18.624Z,96
2018-07-21T04:01:59.138Z,104
2018-07-21T04:02:39.651Z,108
2018-07-21T04:03:20.159Z,112
2018-07-21T04:04:00.694Z,116
2018-07-21T04:04:41.213Z,120
2018-07-21T04:05:21.740Z,124
2018-07-21T04:06:02.254Z,128
2018-07-21T04:06:42.790Z,136
2018-07-21T04:07:23.332Z,140
2018-07-21T04:08:03.873Z,148
2018-07-21T04:08:44.356Z,152
2018-07-21T04:09:24.859Z,160
2018-07-21T04:10:05.363Z,164
2018-07-21T04:10:45.857Z,172
2018-07-21T04:11:26.408Z,180
2018-07-21T04:12:06.862Z,192
2018-07-21T04:12:47.361Z,196
2018-07-21T04:13:27.885Z,200
2018-07-21T04:14:08.373Z,208
2018-07-21T04:14:48.889Z,220
2018-07-21T04:15:29.388Z,224
2018-07-21T04:16:09.934Z,228
2018-07-21T04:16:50.466Z,232
2018-07-21T04:17:30.969Z,240
2018-07-21T04:18:11.436Z,244
2018-07-21T04:18:51.906Z,248
2018-07-21T04:19:32.421Z,256
2018-07-21T04:20:12.923Z,260
2018-07-21T04:20:53.397Z,268
2018-07-21T04:21:33.945Z,272
2018-07-21T04:22:14.410Z,280
2018-07-21T04:22:54.964Z,288
2018-07-21T04:23:35.401Z,296
2018-07-21T04:24:15.887Z,304
2018-07-21T04:24:56.380Z,308
2018-07-21T04:25:36.887Z,312
2018-07-21T04:26:17.397Z,324
2018-07-21T04:26:57.887Z,328
2018-07-21T04:27:38.385Z,332
2018-07-21T04:28:18.871Z,332
2018-07-21T04:28:59.390Z,340
2018-07-21T04:29:39.905Z,344
2018-07-21T04:30:20.415Z,344
2018-07-21T04:31:00.948Z,352
2018-07-21T04:31:41.438Z,356
2018-07-21T04:32:21.979Z,356
2018-07-21T04:33:02.471Z,360
2018-07-21T04:33:42.924Z,364
2018-07-21T04:34:23.432Z,372
2018-07-21T04:35:03.929Z,376
2018-07-21T04:35:44.437Z,380
2018-07-21T04:36:24.934Z,380
2018-07-21T04:37:05.451Z,384
2018-07-21T04:37:45.942Z,388
2018-07-21T04:38:26.436Z,388
2018-07-21T04:39:06.915Z,392
2018-07-21T04:39:47.389Z,388
2018-07-21T04:40:27.917Z,396
2018-07-21T04:41:08.375Z,400
2018-07-21T04:41:48.857Z,400
2018-07-21T04:42:29.353Z,404
2018-07-21T04:43:09.858Z,408
2018-07-21T04:43:50.429Z,416
2018-07-21T04:44:30.883Z,420
2018-07-21T04:45:11.376Z,424
2018-07-21T04:45:51.867Z,420
2018-07-21T04:46:32.389Z,428
2018-07-21T04:47:12.892Z,432
2018-07-21T04:47:53.393Z,444
2018-07-21T04:48:33.880Z,448
2018-07-21T04:49:14.434Z,456
2018-07-21T04:49:54.931Z,464
2018-07-21T04:50:35.458Z,472
2018-07-21T04:51:15.927Z,484
2018-07-21T04:51:56.411Z,488
2018-07-21T04:52:36.933Z,496
2018-07-21T04:53:17.437Z,508
2018-07-21T04:53:58.025Z,516
2018-07-21T04:54:38.460Z,532
2018-07-21T04:55:18.946Z,544
2018-07-21T04:55:59.449Z,552
2018-07-21T04:56:39.913Z,564
2018-07-21T04:57:20.412Z,580
2018-07-21T04:58:00.899Z,596
2018-07-21T04:58:41.411Z,604
2018-07-21T04:59:21.925Z,616
2018-07-21T05:00:02.398Z,624
2018-07-21T05:00:42.915Z,636
2018-07-21T05:01:23.386Z,640
2018-07-21T05:02:03.879Z,652
2018-07-21T05:02:44.396Z,660
2018-07-21T05:03:24.932Z,672
2018-07-21T05:04:05.343Z,684
2018-07-21T05:04:45.886Z,688
2018-07-21T05:05:26.382Z,688
2018-07-21T05:06:06.840Z,688
2018-07-21T05:06:47.382Z,688
2018-07-21T05:07:27.941Z,688
2018-07-21T05:08:08.416Z,684
2018-07-21T05:08:48.835Z,684
2018-07-21T05:09:29.314Z,688
2018-07-21T05:10:09.827Z,680
2018-07-21T05:10:50.321Z,672
2018-07-21T05:11:30.754Z,668
2018-07-21T05:12:11.309Z,656
2018-07-21T05:12:51.820Z,644
2018-07-21T05:13:32.312Z,628
2018-07-21T05:14:12.771Z,612
2018-07-21T05:14:53.271Z,600
2018-07-21T05:15:33.761Z,588
2018-07-21T05:16:14.264Z,580
2018-07-21T05:16:54.813Z,576
2018-07-21T05:17:35.302Z,572
2018-07-21T05:18:15.846Z,572
2018-07-21T05:18:56.295Z,572
2018-07-21T05:19:36.821Z,576
2018-07-21T05:20:17.307Z,576
2018-07-21T05:20:57.788Z,572
2018-07-21T05:21:38.283Z,572
2018-07-21T05:22:18.797Z,568
2018-07-21T05:22:59.248Z,560
2018-07-21T05:23:39.743Z,560
2018-07-21T05:24:20.220Z,564
2018-07-21T05:25:00.739Z,568
2018-07-21T05:25:41.245Z,560
2018-07-21T05:26:21.725Z,556
2018-07-21T05:27:02.208Z,552
2018-07-21T05:27:42.715Z,548
2018-07-21T05:28:23.248Z,548
2018-07-21T05:29:03.753Z,544
2018-07-21T05:29:44.285Z,540
2018-07-21T05:30:24.749Z,544
2018-07-21T05:31:05.265Z,544
2018-07-21T05:31:45.787Z,544
2018-07-21T05:32:26.301Z,540
2018-07-21T05:33:06.743Z,532
2018-07-21T05:33:47.255Z,528
2018-07-21T05:34:27.720Z,528
2018-07-21T05:35:08.208Z,520
2018-07-21T05:35:48.679Z,512
2018-07-21T05:36:29.184Z,504
2018-07-21T05:37:09.629Z,488
2018-07-21T05:37:50.138Z,472
2018-07-21T05:38:30.641Z,456
2018-07-21T05:39:11.226Z,444
2018-07-21T05:39:51.672Z,428
2018-07-21T05:40:32.148Z,420
2018-07-21T05:41:12.671Z,404
2018-07-21T05:41:53.152Z,396
2018-07-21T05:42:33.650Z,388
2018-07-21T05:43:14.180Z,380
2018-07-21T05:43:54.624Z,372
2018-07-21T05:44:35.144Z,372
2018-07-21T05:45:15.666Z,372
2018-07-21T05:45:56.136Z,380
2018-07-21T05:46:36.665Z,380
2018-07-21T05:47:17.169Z,384
2018-07-21T05:47:57.676Z,384
2018-07-21T05:48:38.181Z,388
2018-07-21T05:49:18.702Z,392
2018-07-21T05:49:59.195Z,392
2018-07-21T05:50:39.723Z,392
2018-07-21T05:51:20.249Z,396
2018-07-21T05:52:00.737Z,392
2018-07-21T05:52:41.254Z,396
2018-07-21T05:53:21.757Z,396
2018-07-21T05:54:02.266Z,396
2018-07-21T05:54:42.821Z,396
2018-07-21T05:55:23.257Z,404
2018-07-21T05:56:03.742Z,412
2018-07-21T05:56:44.309Z,416
2018-07-21T05:57:24.778Z,424
2018-07-21T05:58:05.255Z,428
2018-07-21T05:58:45.761Z,432
2018-07-21T05:59:26.290Z,436
2018-07-21T06:00:06.830Z,440
2018-07-21T06:00:47.313Z,440
2018-07-21T06:01:27.976Z,440
2018-07-21T06:02:08.370Z,444
2018-07-21T06:02:48.996Z,444
2018-07-21T06:03:29.381Z,444
2018-07-21T06:04:09.869Z,448
2018-07-21T06:04:50.375Z,452
2018-07-21T06:05:30.873Z,456
2018-07-21T06:06:11.374Z,460
2018-07-21T06:06:51.880Z,464
2018-07-21T06:07:32.368Z,472
2018-07-21T06:08:12.896Z,480
2018-07-21T06:08:53.433Z,488
2018-07-21T06:09:33.938Z,496
2018-07-21T06:10:14.531Z,500
2018-07-21T06:10:54.973Z,508
2018-07-21T06:11:35.528Z,512
2018-07-21T06:12:16.025Z,512
2018-07-21T06:12:56.484Z,516
2018-07-21T06:13:37.025Z,524
2018-07-21T06:14:17.492Z,528
2018-07-21T06:14:57.998Z,532
2018-07-21T06:15:38.489Z,544
2018-07-21T06:16:18.997Z,552
2018-07-21T06:16:59.534Z,564
2018-07-21T06:17:39.990Z,580
2018-07-21T06:18:20.474Z,600
2018-07-21T06:19:03.506Z,616
2018-07-21T06:19:42.777Z,636
2018-07-21T06:20:23.281Z,664
2018-07-21T06:21:03.776Z,700
2018-07-21T06:21:44.263Z,736
2018-07-21T06:22:24.787Z,768
2018-07-21T06:23:05.329Z,800
2018-07-21T06:23:45.785Z,828
2018-07-21T06:24:26.319Z,856
2018-07-21T06:25:06.857Z,892
2018-07-21T06:25:47.265Z,928
2018-07-21T06:26:27.770Z,964
2018-07-21T06:27:08.225Z,1000
2018-07-21T06:27:49.482Z,1028
2018-07-21T06:28:29.962Z,1052
2018-07-21T06:29:10.521Z,1068
2018-07-21T06:29:51.035Z,1080
2018-07-21T06:30:31.553Z,1088
2018-07-21T06:31:12.001Z,1108
2018-07-21T06:31:52.495Z,1140
2018-07-21T06:32:33.046Z,1168
2018-07-21T06:33:13.556Z,1200
2018-07-21T06:33:54.053Z,1228
2018-07-21T06:34:34.582Z,1264
2018-07-21T06:35:15.059Z,1292
2018-07-21T06:37:48.653Z,1336
2018-07-21T06:38:29.171Z,1344
2018-07-21T06:39:09.695Z,1340
2018-07-21T06:41:38.303Z,1364
2018-07-21T06:42:18.858Z,1372
2018-07-21T06:42:59.366Z,1388
2018-07-21T06:43:39.926Z,1396
2018-07-21T06:44:20.351Z,1408
2018-07-21T06:45:00.899Z,1412
2018-07-21T06:45:41.429Z,1396
2018-07-21T06:46:21.924Z,1380
2018-07-21T06:47:02.470Z,1356
2018-07-21T06:47:42.940Z,1340
2018-07-21T06:48:23.432Z,1328
2018-07-21T06:49:03.949Z,1320
2018-07-21T06:49:44.439Z,1316
2018-07-21T06:50:25.102Z,1312
2018-07-21T06:51:05.455Z,1316
2018-07-21T06:51:45.961Z,1312
2018-07-21T06:52:26.551Z,1312
2018-07-21T06:53:07.061Z,1308
2018-07-21T06:53:47.556Z,1304
2018-07-21T06:54:28.095Z,1300
2018-07-21T06:55:08.545Z,1304
2018-07-21T06:55:49.045Z,1308
2018-07-21T06:56:29.568Z,1312
2018-07-21T06:57:10.087Z,1312
2018-07-21T06:57:50.566Z,1320
2018-07-21T06:58:31.055Z,1320
2018-07-21T06:59:11.647Z,1324
2018-07-21T06:59:52.315Z,1324
2018-07-21T07:00:32.857Z,1328
2018-07-21T07:01:13.394Z,1336
2018-07-21T07:01:53.860Z,1340
2018-07-21T07:02:34.403Z,1352
2018-07-21T07:03:15.597Z,1356
2018-07-21T07:03:55.849Z,1348
2018-07-21T07:04:36.372Z,1328
2018-07-21T07:05:16.820Z,1312
2018-07-21T07:05:57.360Z,1300
2018-07-21T07:06:37.897Z,1284
2018-07-21T07:07:18.346Z,1268
2018-07-21T07:07:58.842Z,1256
2018-07-21T07:08:39.400Z,1244
2018-07-21T07:09:19.902Z,1224
2018-07-21T07:10:00.394Z,1204
2018-07-21T07:10:40.891Z,1180
2018-07-21T07:11:21.476Z,1152
2018-07-21T07:12:01.996Z,1128
2018-07-21T07:12:42.429Z,1096
2018-07-21T07:13:22.939Z,1068
2018-07-21T07:14:03.460Z,1044
2018-07-21T07:14:43.914Z,1020
2018-07-21T07:15:24.398Z,1004
2018-07-21T07:16:04.999Z,984
2018-07-21T07:16:45.482Z,972
2018-07-21T07:17:25.991Z,952
2018-07-21T07:18:06.523Z,932
2018-07-21T07:18:47.042Z,920
2018-07-21T07:19:27.561Z,912
2018-07-21T07:20:08.053Z,900
2018-07-21T07:20:48.580Z,892
2018-07-21T07:21:29.105Z,884
2018-07-21T07:22:09.576Z,876
2018-07-21T07:22:50.090Z,888
2018-07-21T07:23:30.623Z,892
2018-07-21T07:24:11.162Z,904
2018-07-21T07:24:51.685Z,908
2018-07-21T07:25:32.222Z,912
2018-07-21T07:26:12.800Z,912
2018-07-21T07:26:53.317Z,904
2018-07-21T07:27:34.840Z,912
2018-07-21T07:28:15.154Z,912
2018-07-21T07:28:55.633Z,928
2018-07-21T07:29:36.142Z,944
2018-07-21T07:30:16.651Z,956
2018-07-21T07:30:57.120Z,956
2018-07-21T07:31:37.643Z,968
2018-07-21T07:32:18.179Z,976
2018-07-21T07:32:58.663Z,992
2018-07-21T07:33:39.171Z,1008
2018-07-21T07:34:19.706Z,1020
2018-07-21T07:35:00.170Z,1024
2018-07-21T07:35:40.662Z,1036
2018-07-21T07:36:21.171Z,1056
2018-07-21T07:38:19.556Z,1140
2018-07-21T07:39:00.079Z,1164
2018-07-21T07:39:40.586Z,1180
2018-07-21T07:40:21.292Z,1188
2018-07-21T07:41:01.828Z,1168
2018-07-21T07:41:42.325Z,1168
2018-07-21T07:42:22.868Z,1160
2018-07-21T07:43:03.379Z,1148
2018-07-21T07:43:43.856Z,1140
2018-07-21T07:44:25.528Z,1132
2018-07-21T07:45:04.984Z,1120
2018-07-21T07:45:45.584Z,1128
2018-07-21T07:46:28.647Z,1148
2018-07-21T07:47:17.917Z,1148
2018-07-21T07:47:58.171Z,1156
2018-07-21T07:48:38.799Z,1180
2018-07-21T07:49:19.555Z,1192
2018-07-21T07:50:00.549Z,1196
2018-07-21T07:50:41.143Z,1204
2018-07-21T07:51:21.509Z,1204
2018-07-21T07:52:01.997Z,1204
2018-07-21T07:52:42.595Z,1208
2018-07-21T07:53:23.042Z,1208
2018-07-21T07:54:03.522Z,1208
2018-07-21T07:54:43.989Z,1212
2018-07-21T07:55:24.492Z,1208
2018-07-21T07:56:05.019Z,1200
2018-07-21T07:56:45.530Z,1188
2018-07-21T07:57:26.036Z,1184
2018-07-21T07:58:06.608Z,1180
2018-07-21T07:58:47.169Z,1168
2018-07-21T07:59:27.629Z,1148
2018-07-21T08:00:08.099Z,1132
2018-07-21T08:00:48.606Z,1128
2018-07-21T08:01:29.114Z,1128
2018-07-21T08:02:09.653Z,1132
2018-07-21T08:02:50.372Z,1140
2018-07-21T08:03:30.932Z,1132
2018-07-21T08:04:11.471Z,1128
2018-07-21T08:04:51.993Z,1128
2018-07-21T08:05:32.557Z,1120
2018-07-21T08:06:13.013Z,1112
2018-07-21T08:06:53.582Z,1108
2018-07-21T08:07:34.303Z,1104
2018-07-21T08:08:14.845Z,1096
2018-07-21T08:08:55.411Z,1088
2018-07-21T08:09:36.267Z,1080
2018-07-21T08:10:16.777Z,1064
2018-07-21T08:10:57.320Z,1052
2018-07-21T08:11:37.818Z,1036
2018-07-21T08:12:18.352Z,1024
2018-07-21T08:12:58.875Z,1016
2018-07-21T08:13:39.317Z,1012
2018-07-21T08:14:19.952Z,1008
2018-07-21T08:15:00.590Z,1016
2018-07-21T08:15:40.967Z,1028
2018-07-21T08:16:21.449Z,1040
2018-07-21T08:17:01.911Z,1052
2018-07-21T08:17:42.563Z,1056
2018-07-21T08:18:23.108Z,1060
2018-07-21T08:19:03.617Z,1052
2018-07-21T08:19:45.097Z,1052
2018-07-21T08:20:25.785Z,1024
2018-07-21T08:21:06.306Z,1028
2018-07-21T08:21:46.808Z,1064
2018-07-21T08:22:27.369Z,1080
2018-07-21T08:23:07.888Z,1096
2018-07-21T08:23:48.641Z,1124
2018-07-21T08:24:29.157Z,1156
2018-07-21T08:25:09.647Z,1188
2018-07-21T08:25:50.086Z,1228
2018-07-21T08:26:30.632Z,1272
2018-07-21T08:27:11.077Z,1312
2018-07-21T08:27:51.656Z,1356
2018-07-21T08:28:32.162Z,1400
2018-07-21T08:29:12.665Z,1444
2018-07-21T08:29:53.197Z,1476
2018-07-21T08:30:33.707Z,1492
2018-07-21T08:31:14.266Z,1496
2018-07-21T08:31:54.711Z,1496
2018-07-21T08:32:35.265Z,1500
2018-07-21T08:33:15.940Z,1516
2018-07-21T08:33:56.479Z,1540
2018-07-21T08:34:36.982Z,1580
2018-07-21T08:35:17.485Z,1624
2018-07-21T08:35:57.993Z,1660
2018-07-21T08:36:38.488Z,1692
2018-07-21T08:37:19.000Z,1728
2018-07-21T08:37:59.515Z,1756
2018-07-21T08:38:40.002Z,1772
2018-07-21T08:39:20.485Z,1792
2018-07-21T08:40:00.965Z,1800
2018-07-21T08:40:41.517Z,1808
2018-07-21T08:41:22.013Z,1808
2018-07-21T08:42:02.562Z,1808
2018-07-21T08:42:43.006Z,1816
2018-07-21T08:43:23.529Z,1836
2018-07-21T08:44:04.041Z,1848
2018-07-21T08:44:44.520Z,1868
2018-07-21T08:45:25.016Z,1884
2018-07-21T08:46:05.496Z,1900
2018-07-21T08:46:45.978Z,1912
2018-07-21T08:47:26.456Z,1924
2018-07-21T08:48:06.966Z,1932
2018-07-21T08:48:47.428Z,1936
2018-07-21T08:49:27.968Z,1940
2018-07-21T08:50:08.471Z,1936
2018-07-21T08:50:49.027Z,1928
2018-07-21T08:51:29.502Z,1928
2018-07-21T08:52:10.034Z,1924
2018-07-21T08:52:50.517Z,1916
2018-07-21T08:53:31.227Z,1908
2018-07-21T08:54:11.711Z,1892
2018-07-21T08:54:52.241Z,1880
2018-07-21T08:55:32.788Z,1868
2018-07-21T08:56:13.272Z,1856
2018-07-21T08:56:53.776Z,1848
2018-07-21T08:57:34.243Z,1836
2018-07-21T08:58:14.840Z,1828
2018-07-21T08:58:55.303Z,1820
2018-07-21T08:59:35.780Z,1816
2018-07-21T09:00:16.305Z,1816
2018-07-21T09:00:56.773Z,1816
2018-07-21T09:01:37.300Z,1816
2018-07-21T09:02:17.809Z,1812
2018-07-21T09:02:58.291Z,1816
2018-07-21T09:03:38.811Z,1820
2018-07-21T09:04:19.399Z,1828
2018-07-21T09:04:59.920Z,1840
2018-07-21T09:05:40.624Z,1856
2018-07-21T09:06:21.084Z,1872
2018-07-21T09:07:01.645Z,1892
2018-07-21T09:07:42.150Z,1916
2018-07-21T09:08:22.667Z,1940
2018-07-21T09:09:03.150Z,1972
2018-07-21T09:09:43.682Z,2008
2018-07-21T09:10:24.163Z,2052
2018-07-21T09:11:04.712Z,2096
2018-07-21T09:11:45.214Z,2148
2018-07-21T09:12:25.740Z,2200
2018-07-21T09:13:06.214Z,2248
2018-07-21T09:13:46.768Z,2300
2018-07-21T09:14:27.270Z,2340
2018-07-21T09:15:07.758Z,2388
2018-07-21T09:15:48.272Z,2436
2018-07-21T09:16:28.759Z,2492
2018-07-21T09:17:09.249Z,2548
2018-07-21T09:17:49.783Z,2600
2018-07-21T09:18:30.258Z,2660
2018-07-21T09:19:10.738Z,2716
2018-07-21T09:19:51.275Z,2772
2018-07-21T09:20:31.721Z,2832
2018-07-21T09:21:12.229Z,2884
2018-07-21T09:21:52.712Z,2932
2018-07-21T09:22:33.226Z,2980
2018-07-21T09:23:13.758Z,3016
2018-07-21T09:23:54.269Z,3056
2018-07-21T09:24:34.755Z,3088
2018-07-21T09:25:15.362Z,3116
2018-07-21T09:25:55.842Z,3128
2018-07-21T09:26:36.443Z,3124
2018-07-21T09:27:16.952Z,3116
2018-07-21T09:27:57.484Z,3076
2018-07-21T09:28:37.978Z,3020
2018-07-21T09:29:18.459Z,2944
2018-07-21T09:29:58.978Z,2848
2018-07-21T09:30:39.506Z,2764
2018-07-21T09:31:19.959Z,2696
2018-07-21T09:32:00.475Z,2632
2018-07-21T09:32:40.959Z,2560
2018-07-21T09:33:21.655Z,2496
2018-07-21T09:34:02.223Z,2444